sensor_id;sensor_type;location;lat;lon;timestamp;temperature;humidity
9658;DHT22;4867;48.112;11.622;2022-10-17T00:00:41;12.50;99.90
9658;DHT22;4867;48.112;11.622;2022-10-17T00:03:08;12.40;99.90
9658;DHT22;4867;48.112;11.622;2022-10-17T00:05:41;12.50;99.90
9658;DHT22;4867;48.112;11.622;2022-10-17T00:08:10;12.50;99.90
9658;DHT22;4867;48.112;11.622;2022-10-17T00:10:38;12.40;99.90
9658;DHT22;4867;48.112;11.622;2022-10-17T00:13:06;12.40;99.90
9658;DHT22;4867;48.112;11.622;2022-10-17T00:15:33;12.40;99.90
9658;DHT22;4867;48.112;11.622;2022-10-17T00:18:01;12.40;99.90
9658;DHT22;4867;48.112;11.622;2022-10-17T00:20:29;12.40;99.90
9658;DHT22;4867;48.112;11.622;2022-10-17T00:22:56;12.40;99.90
9658;DHT22;4867;48.112;11.622;2022-10-17T00:25:24;12.40;99.90
9658;DHT22;4867;48.112;11.622;2022-10-17T00:27:51;12.30;99.90
9658;DHT22;4867;48.112;11.622;2022-10-17T00:30:18;12.20;99.90
9658;DHT22;4867;48.112;11.622;2022-10-17T00:32:45;12.30;99.90
9658;DHT22;4867;48.112;11.622;2022-10-17T00:35:13;12.20;99.90
9658;DHT22;4867;48.112;11.622;2022-10-17T00:37:41;12.20;99.90
9658;DHT22;4867;48.112;11.622;2022-10-17T00:40:09;12.10;99.90
9658;DHT22;4867;48.112;11.622;2022-10-17T00:42:36;12.10;99.90
9658;DHT22;4867;48.112;11.622;2022-10-17T00:47:35;12.10;99.90
9658;DHT22;4867;48.112;11.622;2022-10-17T00:50:04;12.10;99.90
9658;DHT22;4867;48.112;11.622;2022-10-17T00:52:33;12.10;99.90
9658;DHT22;4867;48.112;11.622;2022-10-17T00:55:24;12.00;99.90
9658;DHT22;4867;48.112;11.622;2022-10-17T00:57:57;12.00;99.90
9658;DHT22;4867;48.112;11.622;2022-10-17T01:00:26;12.00;99.90
9658;DHT22;4867;48.112;11.622;2022-10-17T01:02:53;12.00;99.90
9658;DHT22;4867;48.112;11.622;2022-10-17T01:05:21;11.90;99.90
9658;DHT22;4867;48.112;11.622;2022-10-17T01:07:50;11.80;99.90
9658;DHT22;4867;48.112;11.622;2022-10-17T01:10:18;11.80;99.90
9658;DHT22;4867;48.112;11.622;2022-10-17T01:32:34;11.70;99.90
9658;DHT22;4867;48.112;11.622;2022-10-17T01:37:55;11.50;99.90
9658;DHT22;4867;48.112;11.622;2022-10-17T01:40:36;11.50;99.90
9658;DHT22;4867;48.112;11.622;2022-10-17T01:43:22;11.50;99.90
9658;DHT22;4867;48.112;11.622;2022-10-17T01:48:21;11.50;99.90
9658;DHT22;4867;48.112;11.622;2022-10-17T01:51:03;11.40;99.90
9658;DHT22;4867;48.112;11.622;2022-10-17T01:54:00;11.40;99.90
9658;DHT22;4867;48.112;11.622;2022-10-17T01:56:29;11.40;99.90
9658;DHT22;4867;48.112;11.622;2022-10-17T01:59:06;11.40;99.90
9658;DHT22;4867;48.112;11.622;2022-10-17T02:01:36;11.40;99.90
9658;DHT22;4867;48.112;11.622;2022-10-17T02:04:06;11.40;99.90
9658;DHT22;4867;48.112;11.622;2022-10-17T02:06:35;11.20;99.90
9658;DHT22;4867;48.112;11.622;2022-10-17T02:09:21;11.40;99.90
9658;DHT22;4867;48.112;11.622;2022-10-17T02:17:29;11.30;99.90
9658;DHT22;4867;48.112;11.622;2022-10-17T02:23:00;11.30;99.90
9658;DHT22;4867;48.112;11.622;2022-10-17T02:25:45;11.30;99.90
9658;DHT22;4867;48.112;11.622;2022-10-17T02:30:59;11.20;99.90
9658;DHT22;4867;48.112;11.622;2022-10-17T02:33:34;11.20;99.90
9658;DHT22;4867;48.112;11.622;2022-10-17T02:36:08;11.20;99.90
9658;DHT22;4867;48.112;11.622;2022-10-17T02:38:38;11.20;99.90
9658;DHT22;4867;48.112;11.622;2022-10-17T02:41:09;11.10;99.90
9658;DHT22;4867;48.112;11.622;2022-10-17T02:43:37;11.30;99.90
9658;DHT22;4867;48.112;11.622;2022-10-17T02:46:05;11.20;99.90
9658;DHT22;4867;48.112;11.622;2022-10-17T02:48:39;11.10;99.90
9658;DHT22;4867;48.112;11.622;2022-10-17T02:51:49;11.10;99.90
9658;DHT22;4867;48.112;11.622;2022-10-17T02:54:28;11.10;99.90
9658;DHT22;4867;48.112;11.622;2022-10-17T02:57:13;11.10;99.90
9658;DHT22;4867;48.112;11.622;2022-10-17T02:59:43;11.10;99.90
9658;DHT22;4867;48.112;11.622;2022-10-17T03:02:12;11.00;99.90
9658;DHT22;4867;48.112;11.622;2022-10-17T03:04:42;11.00;99.90
9658;DHT22;4867;48.112;11.622;2022-10-17T03:07:10;11.00;99.90
9658;DHT22;4867;48.112;11.622;2022-10-17T03:09:37;10.90;99.90
9658;DHT22;4867;48.112;11.622;2022-10-17T03:12:05;10.90;99.90
9658;DHT22;4867;48.112;11.622;2022-10-17T03:14:33;10.90;99.90
9658;DHT22;4867;48.112;11.622;2022-10-17T03:17:02;10.90;99.90
9658;DHT22;4867;48.112;11.622;2022-10-17T03:19:30;11.00;99.90
9658;DHT22;4867;48.112;11.622;2022-10-17T03:21:58;10.90;99.90
9658;DHT22;4867;48.112;11.622;2022-10-17T03:24:25;10.80;99.90
9658;DHT22;4867;48.112;11.622;2022-10-17T03:26:52;11.00;99.90
9658;DHT22;4867;48.112;11.622;2022-10-17T03:29:19;10.80;99.90
9658;DHT22;4867;48.112;11.622;2022-10-17T03:31:47;10.80;99.90
9658;DHT22;4867;48.112;11.622;2022-10-17T03:34:14;10.80;99.90
9658;DHT22;4867;48.112;11.622;2022-10-17T03:36:44;10.80;99.90
9658;DHT22;4867;48.112;11.622;2022-10-17T03:39:12;10.80;99.90
9658;DHT22;4867;48.112;11.622;2022-10-17T03:41:40;10.80;99.90
9658;DHT22;4867;48.112;11.622;2022-10-17T03:44:08;10.70;99.90
9658;DHT22;4867;48.112;11.622;2022-10-17T03:46:35;10.80;99.90
9658;DHT22;4867;48.112;11.622;2022-10-17T03:49:03;10.80;99.90
9658;DHT22;4867;48.112;11.622;2022-10-17T03:51:32;10.70;99.90
9658;DHT22;4867;48.112;11.622;2022-10-17T03:54:05;10.70;99.90
9658;DHT22;4867;48.112;11.622;2022-10-17T03:56:32;10.70;99.90
9658;DHT22;4867;48.112;11.622;2022-10-17T03:59:08;10.60;99.90
9658;DHT22;4867;48.112;11.622;2022-10-17T04:01:37;10.60;99.90
9658;DHT22;4867;48.112;11.622;2022-10-17T04:04:04;10.60;99.90
9658;DHT22;4867;48.112;11.622;2022-10-17T04:06:34;10.60;99.90
9658;DHT22;4867;48.112;11.622;2022-10-17T04:09:03;10.60;99.90
9658;DHT22;4867;48.112;11.622;2022-10-17T04:11:53;10.60;99.90
9658;DHT22;4867;48.112;11.622;2022-10-17T04:14:21;10.50;99.90
9658;DHT22;4867;48.112;11.622;2022-10-17T04:16:50;10.50;99.90
9658;DHT22;4867;48.112;11.622;2022-10-17T04:19:20;10.50;99.90
9658;DHT22;4867;48.112;11.622;2022-10-17T04:21:48;10.50;99.90
9658;DHT22;4867;48.112;11.622;2022-10-17T04:24:16;10.50;99.90
9658;DHT22;4867;48.112;11.622;2022-10-17T04:26:59;10.50;99.90
9658;DHT22;4867;48.112;11.622;2022-10-17T04:29:29;10.40;99.90
9658;DHT22;4867;48.112;11.622;2022-10-17T04:32:07;10.40;99.90
9658;DHT22;4867;48.112;11.622;2022-10-17T04:34:48;10.30;99.90
9658;DHT22;4867;48.112;11.622;2022-10-17T04:37:17;10.40;99.90
9658;DHT22;4867;48.112;11.622;2022-10-17T04:39:45;10.20;99.90
9658;DHT22;4867;48.112;11.622;2022-10-17T04:42:13;10.40;99.90
9658;DHT22;4867;48.112;11.622;2022-10-17T04:44:40;10.30;99.90
9658;DHT22;4867;48.112;11.622;2022-10-17T04:47:08;10.20;99.90
9658;DHT22;4867;48.112;11.622;2022-10-17T04:49:37;10.20;99.90
9658;DHT22;4867;48.112;11.622;2022-10-17T04:52:08;10.10;99.90
9658;DHT22;4867;48.112;11.622;2022-10-17T04:54:43;10.10;99.90
9658;DHT22;4867;48.112;11.622;2022-10-17T04:57:13;10.20;99.90
9658;DHT22;4867;48.112;11.622;2022-10-17T04:59:43;10.10;99.90
9658;DHT22;4867;48.112;11.622;2022-10-17T05:02:17;10.10;99.90
9658;DHT22;4867;48.112;11.622;2022-10-17T05:04:45;10.10;99.90
9658;DHT22;4867;48.112;11.622;2022-10-17T05:07:14;10.10;99.90
9658;DHT22;4867;48.112;11.622;2022-10-17T05:10:02;10.00;99.90
9658;DHT22;4867;48.112;11.622;2022-10-17T05:12:31;10.10;99.90
9658;DHT22;4867;48.112;11.622;2022-10-17T05:14:58;10.10;99.90
9658;DHT22;4867;48.112;11.622;2022-10-17T05:17:27;10.20;99.90
9658;DHT22;4867;48.112;11.622;2022-10-17T05:19:54;10.10;99.90
9658;DHT22;4867;48.112;11.622;2022-10-17T05:22:22;10.10;99.90
9658;DHT22;4867;48.112;11.622;2022-10-17T05:24:50;10.00;99.90
9658;DHT22;4867;48.112;11.622;2022-10-17T05:27:18;10.00;99.90
9658;DHT22;4867;48.112;11.622;2022-10-17T05:29:45;10.00;99.90
9658;DHT22;4867;48.112;11.622;2022-10-17T05:32:19;10.10;99.90
9658;DHT22;4867;48.112;11.622;2022-10-17T05:34:47;10.00;99.90
9658;DHT22;4867;48.112;11.622;2022-10-17T05:37:14;10.00;99.90
9658;DHT22;4867;48.112;11.622;2022-10-17T05:39:46;9.90;99.90
9658;DHT22;4867;48.112;11.622;2022-10-17T05:42:18;10.00;99.90
9658;DHT22;4867;48.112;11.622;2022-10-17T05:44:46;10.00;99.90
9658;DHT22;4867;48.112;11.622;2022-10-17T05:47:16;10.00;99.90
9658;DHT22;4867;48.112;11.622;2022-10-17T05:49:43;10.00;99.90
9658;DHT22;4867;48.112;11.622;2022-10-17T05:52:21;10.00;99.90
9658;DHT22;4867;48.112;11.622;2022-10-17T05:55:11;9.90;99.90
9658;DHT22;4867;48.112;11.622;2022-10-17T05:57:39;10.00;99.90
9658;DHT22;4867;48.112;11.622;2022-10-17T06:00:12;10.20;99.90
9658;DHT22;4867;48.112;11.622;2022-10-17T06:02:49;10.10;99.90
9658;DHT22;4867;48.112;11.622;2022-10-17T06:05:18;10.10;99.90
9658;DHT22;4867;48.112;11.622;2022-10-17T06:07:46;10.10;99.90
9658;DHT22;4867;48.112;11.622;2022-10-17T06:10:15;10.20;99.90
9658;DHT22;4867;48.112;11.622;2022-10-17T06:12:44;10.10;99.90
9658;DHT22;4867;48.112;11.622;2022-10-17T06:15:11;10.20;99.90
9658;DHT22;4867;48.112;11.622;2022-10-17T06:17:42;10.20;99.90
9658;DHT22;4867;48.112;11.622;2022-10-17T06:20:09;10.30;99.90
9658;DHT22;4867;48.112;11.622;2022-10-17T06:22:37;10.40;99.90
9658;DHT22;4867;48.112;11.622;2022-10-17T06:25:10;10.40;99.90
9658;DHT22;4867;48.112;11.622;2022-10-17T06:27:37;10.40;99.90
9658;DHT22;4867;48.112;11.622;2022-10-17T06:30:05;10.50;99.90
9658;DHT22;4867;48.112;11.622;2022-10-17T06:32:32;10.60;99.90
9658;DHT22;4867;48.112;11.622;2022-10-17T06:34:59;10.60;99.90
9658;DHT22;4867;48.112;11.622;2022-10-17T06:37:32;10.60;99.90
9658;DHT22;4867;48.112;11.622;2022-10-17T06:40:06;10.70;99.90
9658;DHT22;4867;48.112;11.622;2022-10-17T06:42:36;10.70;99.90
9658;DHT22;4867;48.112;11.622;2022-10-17T06:45:25;10.80;99.90
9658;DHT22;4867;48.112;11.622;2022-10-17T06:48:01;10.80;99.90
9658;DHT22;4867;48.112;11.622;2022-10-17T06:50:42;10.90;99.90
9658;DHT22;4867;48.112;11.622;2022-10-17T06:53:17;10.90;99.90
9658;DHT22;4867;48.112;11.622;2022-10-17T06:55:51;11.00;99.90
9658;DHT22;4867;48.112;11.622;2022-10-17T06:58:36;11.00;99.90
9658;DHT22;4867;48.112;11.622;2022-10-17T07:01:11;11.00;99.90
9658;DHT22;4867;48.112;11.622;2022-10-17T07:03:40;11.20;99.90
9658;DHT22;4867;48.112;11.622;2022-10-17T07:06:08;11.30;99.90
9658;DHT22;4867;48.112;11.622;2022-10-17T07:08:43;11.40;99.90
9658;DHT22;4867;48.112;11.622;2022-10-17T07:11:16;11.50;99.90
9658;DHT22;4867;48.112;11.622;2022-10-17T07:13:44;11.50;99.90
9658;DHT22;4867;48.112;11.622;2022-10-17T07:16:12;11.70;99.90
9658;DHT22;4867;48.112;11.622;2022-10-17T07:18:41;11.80;99.90
9658;DHT22;4867;48.112;11.622;2022-10-17T07:21:09;11.90;99.90
9658;DHT22;4867;48.112;11.622;2022-10-17T07:23:38;12.10;99.90
9658;DHT22;4867;48.112;11.622;2022-10-17T07:26:11;12.10;99.90
9658;DHT22;4867;48.112;11.622;2022-10-17T07:28:42;12.20;99.90
9658;DHT22;4867;48.112;11.622;2022-10-17T07:31:23;12.30;99.90
9658;DHT22;4867;48.112;11.622;2022-10-17T07:33:51;12.50;99.90
9658;DHT22;4867;48.112;11.622;2022-10-17T07:36:19;12.60;99.90
9658;DHT22;4867;48.112;11.622;2022-10-17T07:38:46;12.70;99.90
9658;DHT22;4867;48.112;11.622;2022-10-17T07:41:14;12.90;99.90
9658;DHT22;4867;48.112;11.622;2022-10-17T07:43:48;13.00;99.90
9658;DHT22;4867;48.112;11.622;2022-10-17T07:46:19;13.10;99.90
9658;DHT22;4867;48.112;11.622;2022-10-17T07:48:46;13.20;99.90
9658;DHT22;4867;48.112;11.622;2022-10-17T07:51:14;13.30;99.90
9658;DHT22;4867;48.112;11.622;2022-10-17T07:53:41;13.40;99.90
9658;DHT22;4867;48.112;11.622;2022-10-17T07:56:15;13.50;99.90
9658;DHT22;4867;48.112;11.622;2022-10-17T07:58:42;13.70;99.90
9658;DHT22;4867;48.112;11.622;2022-10-17T08:01:10;13.80;99.90
9658;DHT22;4867;48.112;11.622;2022-10-17T08:03:46;13.90;99.90
9658;DHT22;4867;48.112;11.622;2022-10-17T08:06:15;14.10;99.90
9658;DHT22;4867;48.112;11.622;2022-10-17T08:08:42;14.20;99.90
9658;DHT22;4867;48.112;11.622;2022-10-17T08:11:13;14.30;99.90
9658;DHT22;4867;48.112;11.622;2022-10-17T08:13:41;14.40;99.90
9658;DHT22;4867;48.112;11.622;2022-10-17T08:16:10;14.50;99.90
9658;DHT22;4867;48.112;11.622;2022-10-17T08:18:39;14.60;99.90
9658;DHT22;4867;48.112;11.622;2022-10-17T08:21:07;14.70;99.90
9658;DHT22;4867;48.112;11.622;2022-10-17T08:23:35;14.90;99.90
9658;DHT22;4867;48.112;11.622;2022-10-17T08:26:05;15.00;99.90
9658;DHT22;4867;48.112;11.622;2022-10-17T08:28:35;15.10;99.90
9658;DHT22;4867;48.112;11.622;2022-10-17T08:33:31;15.40;99.90
9658;DHT22;4867;48.112;11.622;2022-10-17T08:36:00;15.50;99.90
9658;DHT22;4867;48.112;11.622;2022-10-17T08:38:28;15.60;99.90
9658;DHT22;4867;48.112;11.622;2022-10-17T08:41:04;15.60;99.90
9658;DHT22;4867;48.112;11.622;2022-10-17T08:46:35;15.90;99.90
9658;DHT22;4867;48.112;11.622;2022-10-17T08:49:09;16.00;99.90
9658;DHT22;4867;48.112;11.622;2022-10-17T08:51:44;16.10;99.90
9658;DHT22;4867;48.112;11.622;2022-10-17T08:54:25;16.20;99.90
9658;DHT22;4867;48.112;11.622;2022-10-17T08:56:56;16.40;99.90
9658;DHT22;4867;48.112;11.622;2022-10-17T08:59:28;16.50;99.90
9658;DHT22;4867;48.112;11.622;2022-10-17T09:05:23;16.70;99.90
9658;DHT22;4867;48.112;11.622;2022-10-17T09:16:30;17.20;99.90
9658;DHT22;4867;48.112;11.622;2022-10-17T09:21:44;17.40;99.90
9658;DHT22;4867;48.112;11.622;2022-10-17T09:24:42;17.50;99.90
9658;DHT22;4867;48.112;11.622;2022-10-17T09:27:39;17.60;99.90
9658;DHT22;4867;48.112;11.622;2022-10-17T09:33:55;17.80;99.90
9658;DHT22;4867;48.112;11.622;2022-10-17T09:36:22;17.80;99.90
9658;DHT22;4867;48.112;11.622;2022-10-17T09:38:55;17.90;99.90
9658;DHT22;4867;48.112;11.622;2022-10-17T09:41:43;18.00;99.90
9658;DHT22;4867;48.112;11.622;2022-10-17T09:47:25;18.20;99.90
9658;DHT22;4867;48.112;11.622;2022-10-17T09:49:54;18.30;99.90
9658;DHT22;4867;48.112;11.622;2022-10-17T09:52:33;18.30;99.90
9658;DHT22;4867;48.112;11.622;2022-10-17T09:58:00;18.50;99.90
9658;DHT22;4867;48.112;11.622;2022-10-17T10:00:40;18.70;99.90
9658;DHT22;4867;48.112;11.622;2022-10-17T10:06:15;18.90;99.90
9658;DHT22;4867;48.112;11.622;2022-10-17T10:08:50;19.00;99.90
9658;DHT22;4867;48.112;11.622;2022-10-17T10:11:22;19.00;99.90
9658;DHT22;4867;48.112;11.622;2022-10-17T10:13:50;19.10;99.90
9658;DHT22;4867;48.112;11.622;2022-10-17T10:16:31;19.20;99.90
9658;DHT22;4867;48.112;11.622;2022-10-17T10:18:59;19.30;99.90
9658;DHT22;4867;48.112;11.622;2022-10-17T10:21:30;19.40;99.90
9658;DHT22;4867;48.112;11.622;2022-10-17T10:26:43;19.60;99.90
9658;DHT22;4867;48.112;11.622;2022-10-17T10:29:31;19.70;99.90
9658;DHT22;4867;48.112;11.622;2022-10-17T10:32:17;19.70;99.90
9658;DHT22;4867;48.112;11.622;2022-10-17T10:39:51;19.90;99.90
9658;DHT22;4867;48.112;11.622;2022-10-17T10:45:02;20.10;99.90
9658;DHT22;4867;48.112;11.622;2022-10-17T10:47:31;20.10;99.90
9658;DHT22;4867;48.112;11.622;2022-10-17T10:55:27;20.20;99.90
9658;DHT22;4867;48.112;11.622;2022-10-17T10:58:17;20.30;99.90
9658;DHT22;4867;48.112;11.622;2022-10-17T11:00:46;20.30;99.90
9658;DHT22;4867;48.112;11.622;2022-10-17T11:03:15;20.40;99.90
9658;DHT22;4867;48.112;11.622;2022-10-17T11:05:54;20.50;99.90
9658;DHT22;4867;48.112;11.622;2022-10-17T11:08:42;20.60;99.90
9658;DHT22;4867;48.112;11.622;2022-10-17T11:11:27;20.70;99.90
9658;DHT22;4867;48.112;11.622;2022-10-17T11:14:18;20.70;99.90
9658;DHT22;4867;48.112;11.622;2022-10-17T11:17:02;20.80;99.90
9658;DHT22;4867;48.112;11.622;2022-10-17T11:22:45;20.90;99.90
9658;DHT22;4867;48.112;11.622;2022-10-17T11:25:35;21.00;99.90
9658;DHT22;4867;48.112;11.622;2022-10-17T11:28:07;21.10;99.90
9658;DHT22;4867;48.112;11.622;2022-10-17T11:30:46;21.10;99.90
9658;DHT22;4867;48.112;11.622;2022-10-17T11:36:15;21.30;99.90
9658;DHT22;4867;48.112;11.622;2022-10-17T11:39:12;21.30;99.90
9658;DHT22;4867;48.112;11.622;2022-10-17T11:41:53;21.40;99.90
9658;DHT22;4867;48.112;11.622;2022-10-17T11:44:38;21.50;99.90
9658;DHT22;4867;48.112;11.622;2022-10-17T11:49:55;21.60;99.90
9658;DHT22;4867;48.112;11.622;2022-10-17T11:52:42;21.80;99.90
9658;DHT22;4867;48.112;11.622;2022-10-17T11:55:30;21.90;99.90
9658;DHT22;4867;48.112;11.622;2022-10-17T12:09:05;22.20;99.90
9658;DHT22;4867;48.112;11.622;2022-10-17T12:17:03;22.40;99.90
9658;DHT22;4867;48.112;11.622;2022-10-17T12:19:33;22.40;99.90
9658;DHT22;4867;48.112;11.622;2022-10-17T12:24:56;22.60;99.90
9658;DHT22;4867;48.112;11.622;2022-10-17T12:27:41;22.70;99.90
9658;DHT22;4867;48.112;11.622;2022-10-17T12:30:18;22.70;99.90
9658;DHT22;4867;48.112;11.622;2022-10-17T12:33:13;22.70;99.90
9658;DHT22;4867;48.112;11.622;2022-10-17T12:35:49;22.80;99.90
9658;DHT22;4867;48.112;11.622;2022-10-17T12:52:18;23.10;99.90
9658;DHT22;4867;48.112;11.622;2022-10-17T12:54:58;23.20;99.90
9658;DHT22;4867;48.112;11.622;2022-10-17T12:57:54;23.20;99.90
9658;DHT22;4867;48.112;11.622;2022-10-17T13:00:36;23.20;99.90
9658;DHT22;4867;48.112;11.622;2022-10-17T13:06:06;23.30;99.90
9658;DHT22;4867;48.112;11.622;2022-10-17T13:08:39;23.40;99.90
9658;DHT22;4867;48.112;11.622;2022-10-17T13:11:10;23.40;99.90
9658;DHT22;4867;48.112;11.622;2022-10-17T13:13:47;23.40;99.90
9658;DHT22;4867;48.112;11.622;2022-10-17T13:16:34;23.30;99.90
9658;DHT22;4867;48.112;11.622;2022-10-17T13:19:14;23.40;99.90
9658;DHT22;4867;48.112;11.622;2022-10-17T13:21:52;23.50;99.90
9658;DHT22;4867;48.112;11.622;2022-10-17T13:24:33;23.50;99.90
9658;DHT22;4867;48.112;11.622;2022-10-17T13:27:01;23.60;99.90
9658;DHT22;4867;48.112;11.622;2022-10-17T13:29:30;23.60;99.90
9658;DHT22;4867;48.112;11.622;2022-10-17T13:32:03;23.70;99.90
9658;DHT22;4867;48.112;11.622;2022-10-17T13:34:32;23.70;99.90
9658;DHT22;4867;48.112;11.622;2022-10-17T13:37:04;23.70;99.90
9658;DHT22;4867;48.112;11.622;2022-10-17T13:39:35;23.70;99.90
9658;DHT22;4867;48.112;11.622;2022-10-17T13:42:22;23.70;99.90
9658;DHT22;4867;48.112;11.622;2022-10-17T13:44:50;23.70;99.90
9658;DHT22;4867;48.112;11.622;2022-10-17T13:47:23;23.70;99.90
9658;DHT22;4867;48.112;11.622;2022-10-17T13:49:51;23.80;99.90
9658;DHT22;4867;48.112;11.622;2022-10-17T13:52:24;23.80;99.90
9658;DHT22;4867;48.112;11.622;2022-10-17T13:54:54;23.80;99.90
9658;DHT22;4867;48.112;11.622;2022-10-17T13:57:29;23.80;99.90
9658;DHT22;4867;48.112;11.622;2022-10-17T14:00:00;23.90;99.90
9658;DHT22;4867;48.112;11.622;2022-10-17T14:02:40;23.90;99.90
9658;DHT22;4867;48.112;11.622;2022-10-17T14:10:35;24.00;99.90
9658;DHT22;4867;48.112;11.622;2022-10-17T14:13:05;24.00;99.90
9658;DHT22;4867;48.112;11.622;2022-10-17T14:15:35;24.00;99.90
9658;DHT22;4867;48.112;11.622;2022-10-17T14:18:07;24.00;99.90
9658;DHT22;4867;48.112;11.622;2022-10-17T14:20:36;24.00;99.90
9658;DHT22;4867;48.112;11.622;2022-10-17T14:23:41;24.00;99.90
9658;DHT22;4867;48.112;11.622;2022-10-17T14:26:21;23.90;98.90
9658;DHT22;4867;48.112;11.622;2022-10-17T14:29:05;24.00;99.90
9658;DHT22;4867;48.112;11.622;2022-10-17T14:31:34;24.00;99.70
9658;DHT22;4867;48.112;11.622;2022-10-17T14:34:03;24.00;99.90
9658;DHT22;4867;48.112;11.622;2022-10-17T14:36:39;24.10;99.90
9658;DHT22;4867;48.112;11.622;2022-10-17T14:39:23;24.10;99.90
9658;DHT22;4867;48.112;11.622;2022-10-17T14:41:51;24.00;99.90
9658;DHT22;4867;48.112;11.622;2022-10-17T14:44:22;23.90;99.70
9658;DHT22;4867;48.112;11.622;2022-10-17T14:46:55;23.90;99.70
9658;DHT22;4867;48.112;11.622;2022-10-17T14:54:48;23.70;99.40
9658;DHT22;4867;48.112;11.622;2022-10-17T14:59:47;23.80;99.90
9658;DHT22;4867;48.112;11.622;2022-10-17T15:02:24;23.70;99.90
9658;DHT22;4867;48.112;11.622;2022-10-17T15:04:52;23.70;99.90
9658;DHT22;4867;48.112;11.622;2022-10-17T15:07:20;23.70;99.90
9658;DHT22;4867;48.112;11.622;2022-10-17T15:09:49;23.70;99.90
9658;DHT22;4867;48.112;11.622;2022-10-17T15:12:19;23.60;99.90
9658;DHT22;4867;48.112;11.622;2022-10-17T15:14:47;23.50;99.90
9658;DHT22;4867;48.112;11.622;2022-10-17T15:17:23;23.50;99.90
9658;DHT22;4867;48.112;11.622;2022-10-17T15:19:52;23.50;99.90
9658;DHT22;4867;48.112;11.622;2022-10-17T15:22:19;23.40;99.90
9658;DHT22;4867;48.112;11.622;2022-10-17T15:24:47;23.40;99.90
9658;DHT22;4867;48.112;11.622;2022-10-17T15:27:15;23.30;99.90
9658;DHT22;4867;48.112;11.622;2022-10-17T15:29:43;23.30;99.90
9658;DHT22;4867;48.112;11.622;2022-10-17T15:32:11;23.20;99.90
9658;DHT22;4867;48.112;11.622;2022-10-17T15:34:38;23.10;99.90
9658;DHT22;4867;48.112;11.622;2022-10-17T15:37:20;23.00;99.90
9658;DHT22;4867;48.112;11.622;2022-10-17T15:39:50;22.90;99.90
9658;DHT22;4867;48.112;11.622;2022-10-17T15:42:21;22.80;99.90
9658;DHT22;4867;48.112;11.622;2022-10-17T15:44:49;22.70;99.90
9658;DHT22;4867;48.112;11.622;2022-10-17T15:47:34;22.60;99.90
9658;DHT22;4867;48.112;11.622;2022-10-17T15:50:02;22.40;99.90
9658;DHT22;4867;48.112;11.622;2022-10-17T15:52:31;22.40;99.90
9658;DHT22;4867;48.112;11.622;2022-10-17T15:54:58;22.30;99.90
9658;DHT22;4867;48.112;11.622;2022-10-17T15:57:35;22.20;99.90
9658;DHT22;4867;48.112;11.622;2022-10-17T16:00:06;22.00;99.90
9658;DHT22;4867;48.112;11.622;2022-10-17T16:02:35;21.90;99.90
9658;DHT22;4867;48.112;11.622;2022-10-17T16:05:15;21.80;99.90
9658;DHT22;4867;48.112;11.622;2022-10-17T16:07:43;21.60;99.90
9658;DHT22;4867;48.112;11.622;2022-10-17T16:10:15;21.50;99.90
9658;DHT22;4867;48.112;11.622;2022-10-17T16:12:43;21.20;99.90
9658;DHT22;4867;48.112;11.622;2022-10-17T16:15:22;21.10;99.90
9658;DHT22;4867;48.112;11.622;2022-10-17T16:17:51;21.00;99.90
9658;DHT22;4867;48.112;11.622;2022-10-17T16:20:19;20.90;99.90
9658;DHT22;4867;48.112;11.622;2022-10-17T16:22:48;20.80;99.90
9658;DHT22;4867;48.112;11.622;2022-10-17T16:25:24;20.50;99.90
9658;DHT22;4867;48.112;11.622;2022-10-17T16:27:54;20.40;99.90
9658;DHT22;4867;48.112;11.622;2022-10-17T16:30:23;20.20;99.90
9658;DHT22;4867;48.112;11.622;2022-10-17T16:32:52;20.10;99.90
9658;DHT22;4867;48.112;11.622;2022-10-17T16:35:22;19.90;99.90
9658;DHT22;4867;48.112;11.622;2022-10-17T16:37:50;19.80;99.90
9658;DHT22;4867;48.112;11.622;2022-10-17T16:40:17;19.60;99.90
9658;DHT22;4867;48.112;11.622;2022-10-17T16:42:44;19.50;99.90
9658;DHT22;4867;48.112;11.622;2022-10-17T16:45:17;19.40;99.90
9658;DHT22;4867;48.112;11.622;2022-10-17T16:47:45;19.20;99.90
9658;DHT22;4867;48.112;11.622;2022-10-17T16:50:13;19.10;99.90
9658;DHT22;4867;48.112;11.622;2022-10-17T16:52:41;19.00;99.90
9658;DHT22;4867;48.112;11.622;2022-10-17T16:55:08;18.80;99.90
9658;DHT22;4867;48.112;11.622;2022-10-17T16:57:36;18.70;99.90
9658;DHT22;4867;48.112;11.622;2022-10-17T17:00:05;18.60;99.90
9658;DHT22;4867;48.112;11.622;2022-10-17T17:02:32;18.50;99.90
9658;DHT22;4867;48.112;11.622;2022-10-17T17:05:00;18.40;99.90
9658;DHT22;4867;48.112;11.622;2022-10-17T17:07:27;18.30;99.90
9658;DHT22;4867;48.112;11.622;2022-10-17T17:09:56;18.20;99.90
9658;DHT22;4867;48.112;11.622;2022-10-17T17:12:23;18.10;99.90
9658;DHT22;4867;48.112;11.622;2022-10-17T17:14:50;18.00;99.90
9658;DHT22;4867;48.112;11.622;2022-10-17T17:17:18;18.00;99.90
9658;DHT22;4867;48.112;11.622;2022-10-17T17:20:05;17.80;99.90
9658;DHT22;4867;48.112;11.622;2022-10-17T17:22:33;17.70;99.90
9658;DHT22;4867;48.112;11.622;2022-10-17T17:25:00;17.60;99.90
9658;DHT22;4867;48.112;11.622;2022-10-17T17:27:27;17.60;99.90
9658;DHT22;4867;48.112;11.622;2022-10-17T17:29:55;17.50;99.90
9658;DHT22;4867;48.112;11.622;2022-10-17T17:32:22;17.40;99.90
9658;DHT22;4867;48.112;11.622;2022-10-17T17:34:50;17.40;99.90
9658;DHT22;4867;48.112;11.622;2022-10-17T17:37:17;17.30;99.90
9658;DHT22;4867;48.112;11.622;2022-10-17T17:39:44;17.30;99.90
9658;DHT22;4867;48.112;11.622;2022-10-17T17:42:11;17.20;99.90
9658;DHT22;4867;48.112;11.622;2022-10-17T17:44:38;17.00;99.90
9658;DHT22;4867;48.112;11.622;2022-10-17T17:47:06;17.00;99.90
9658;DHT22;4867;48.112;11.622;2022-10-17T17:49:33;16.90;99.90
9658;DHT22;4867;48.112;11.622;2022-10-17T17:52:00;16.90;99.90
9658;DHT22;4867;48.112;11.622;2022-10-17T17:54:29;16.80;99.90
9658;DHT22;4867;48.112;11.622;2022-10-17T17:56:56;16.70;99.90
9658;DHT22;4867;48.112;11.622;2022-10-17T17:59:23;16.70;99.90
9658;DHT22;4867;48.112;11.622;2022-10-17T18:01:50;16.60;99.90
9658;DHT22;4867;48.112;11.622;2022-10-17T18:04:18;16.50;99.90
9658;DHT22;4867;48.112;11.622;2022-10-17T18:06:45;16.50;99.90
9658;DHT22;4867;48.112;11.622;2022-10-17T18:09:12;16.50;99.90
9658;DHT22;4867;48.112;11.622;2022-10-17T18:11:39;16.40;99.90
9658;DHT22;4867;48.112;11.622;2022-10-17T18:14:10;16.30;99.90
9658;DHT22;4867;48.112;11.622;2022-10-17T18:16:38;16.30;99.90
9658;DHT22;4867;48.112;11.622;2022-10-17T18:19:06;16.20;99.90
9658;DHT22;4867;48.112;11.622;2022-10-17T18:21:35;16.20;99.90
9658;DHT22;4867;48.112;11.622;2022-10-17T18:24:03;16.10;99.90
9658;DHT22;4867;48.112;11.622;2022-10-17T18:26:31;16.10;99.90
9658;DHT22;4867;48.112;11.622;2022-10-17T18:28:58;16.00;99.90
9658;DHT22;4867;48.112;11.622;2022-10-17T18:31:25;15.90;99.90
9658;DHT22;4867;48.112;11.622;2022-10-17T18:34:03;15.90;99.90
9658;DHT22;4867;48.112;11.622;2022-10-17T18:36:32;15.80;99.90
9658;DHT22;4867;48.112;11.622;2022-10-17T18:39:00;15.80;99.90
9658;DHT22;4867;48.112;11.622;2022-10-17T18:41:28;15.80;99.90
9658;DHT22;4867;48.112;11.622;2022-10-17T18:43:56;15.70;99.90